Time;durP1;ratioP1;P1;durP2;ratioP2;P2;SDS_P1;SDS_P2;PMS_P1;PMS_P2;Temp;Humidity;BMP_temperature;BMP_pressure;BME280_temperature;BME280_humidity;BME280_pressure;Samples;Min_cycle;Max_cycle;Signal;HPM_P1;HPM_P2
2023/08/04 00:00:23;;;;;;;6.60;4.50;;;26.80;99.90;;;;;;5050372;28;20033;-74
2023/08/04 00:02:49;;;;;;;8.57;6.90;;;26.90;99.90;;;;;;5036087;28;20483;-74
2023/08/04 00:05:14;;;;;;;6.18;4.80;;;26.80;99.90;;;;;;5035994;28;20033;-74
2023/08/04 00:07:42;;;;;;;12.02;6.55;;;26.80;99.90;;;;;;5036318;28;20558;-74
2023/08/04 00:10:08;;;;;;;15.43;11.48;;;26.70;99.90;;;;;;5039752;28;20104;-74
2023/08/04 00:12:34;;;;;;;5.97;4.80;;;26.70;99.90;;;;;;5036083;28;20033;-74
2023/08/04 00:15:00;;;;;;;7.53;5.25;;;26.70;99.90;;;;;;5036101;28;20037;-74
2023/08/04 00:17:26;;;;;;;15.02;12.50;;;26.50;99.90;;;;;;5035820;28;20050;-74
2023/08/04 00:19:52;;;;;;;12.63;10.63;;;26.50;99.90;;;;;;5036009;28;20060;-75
2023/08/04 00:22:17;;;;;;;12.75;9.18;;;26.50;99.90;;;;;;5035760;28;20017;-74
2023/08/04 00:24:43;;;;;;;12.63;7.50;;;26.50;99.90;;;;;;5035304;28;20494;-74
2023/08/04 00:27:09;;;;;;;16.35;12.00;;;26.50;99.90;;;;;;5033010;28;20028;-74
2023/08/04 00:29:35;;;;;;;7.90;6.28;;;26.50;99.90;;;;;;5035707;28;20033;-74
2023/08/04 00:32:01;;;;;;;10.98;6.45;;;26.50;99.90;;;;;;5035861;28;20029;-74
2023/08/04 00:34:26;;;;;;;9.15;6.72;;;26.40;99.90;;;;;;5036438;28;20034;-74
2023/08/04 00:40:29;;;;;;;4.65;3.50;;;26.30;99.90;;;;;;5029423;28;20060;-73
2023/08/04 00:42:54;;;;;;;13.82;9.07;;;26.30;99.90;;;;;;5035387;28;20034;-73
2023/08/04 00:45:21;;;;;;;13.45;10.82;;;26.30;99.90;;;;;;5042409;28;20075;-73
2023/08/04 00:47:47;;;;;;;12.30;9.95;;;26.20;99.90;;;;;;5031192;28;20021;-73
2023/08/04 00:50:14;;;;;;;13.27;9.98;;;26.20;99.90;;;;;;5035810;28;20040;-73
2023/08/04 00:52:40;;;;;;;18.52;13.90;;;26.20;99.90;;;;;;5031599;28;20517;-73
2023/08/04 00:55:08;;;;;;;13.65;9.23;;;26.20;99.90;;;;;;5039648;28;20475;-73
2023/08/04 00:57:36;;;;;;;16.40;13.23;;;26.20;99.90;;;;;;5035203;28;20108;-73
2023/08/04 01:00:02;;;;;;;18.42;12.05;;;26.10;99.90;;;;;;5040324;28;20486;-73
2023/08/04 01:02:28;;;;;;;7.30;4.75;;;26.10;99.90;;;;;;5040094;28;20029;-73
2023/08/04 01:04:54;;;;;;;8.25;6.28;;;26.10;99.90;;;;;;5037652;28;20507;-74
2023/08/04 01:07:25;;;;;;;14.52;11.63;;;26.10;99.90;;;;;;5040710;28;20056;-74
2023/08/04 01:10:18;;;;;;;10.90;7.68;;;26.10;99.90;;;;;;5036684;28;20033;-73
2023/08/04 01:12:55;;;;;;;10.30;6.18;;;26.10;99.90;;;;;;5028417;28;20053;-74
2023/08/04 01:15:24;;;;;;;12.13;9.98;;;26.10;99.90;;;;;;5028446;28;20061;-73
2023/08/04 01:17:50;;;;;;;12.07;10.27;;;26.10;99.90;;;;;;5030820;28;20029;-73
2023/08/04 01:20:17;;;;;;;7.60;6.38;;;26.10;99.90;;;;;;5035180;28;20048;-73
2023/08/04 01:22:43;;;;;;;12.52;10.95;;;26.00;99.90;;;;;;5040487;28;20411;-73
2023/08/04 01:25:09;;;;;;;17.88;12.02;;;26.00;99.90;;;;;;5029544;28;20108;-74
2023/08/04 01:27:37;;;;;;;12.18;9.52;;;26.00;99.90;;;;;;5025001;28;20029;-73
2023/08/04 01:30:07;;;;;;;7.55;6.20;;;26.00;99.90;;;;;;5029173;28;20124;-73
2023/08/04 01:32:42;;;;;;;10.90;7.93;;;26.00;99.90;;;;;;5030472;28;20519;-72
2023/08/04 01:35:09;;;;;;;8.10;5.18;;;25.90;99.90;;;;;;5043230;28;20027;-72
2023/08/04 01:37:35;;;;;;;11.50;8.00;;;25.90;99.90;;;;;;5040693;28;20083;-72
2023/08/04 01:40:01;;;;;;;7.28;5.78;;;26.00;99.90;;;;;;5033117;28;20041;-72
2023/08/04 01:42:26;;;;;;;11.55;10.13;;;25.90;99.90;;;;;;5031834;28;20360;-73
2023/08/04 01:44:52;;;;;;;11.05;8.70;;;25.90;99.90;;;;;;5030124;28;20059;-73
2023/08/04 01:47:18;;;;;;;8.27;6.53;;;25.80;99.90;;;;;;5033230;28;20034;-72
2023/08/04 01:49:43;;;;;;;8.35;6.63;;;25.90;99.90;;;;;;5033892;28;20029;-72
2023/08/04 01:52:09;;;;;;;14.65;9.52;;;25.90;99.90;;;;;;5033235;28;20079;-72
2023/08/04 01:54:38;;;;;;;10.30;5.82;;;25.80;99.90;;;;;;5034209;28;20087;-72
2023/08/04 01:57:03;;;;;;;8.85;5.25;;;25.90;99.90;;;;;;5031628;28;20032;-72
2023/08/04 01:59:41;;;;;;;6.30;3.55;;;25.80;99.90;;;;;;5030131;28;20120;-72
2023/08/04 02:02:07;;;;;;;6.80;3.97;;;25.80;99.90;;;;;;5036235;28;20060;-73
2023/08/04 02:04:33;;;;;;;6.38;3.75;;;25.80;99.90;;;;;;5043898;28;20056;-72
2023/08/04 02:06:59;;;;;;;6.93;3.47;;;25.60;99.90;;;;;;5032820;28;20033;-72
2023/08/04 02:09:27;;;;;;;6.00;3.38;;;25.70;99.90;;;;;;5032021;28;20022;-73
2023/08/04 02:11:54;;;;;;;5.28;3.70;;;25.80;99.90;;;;;;5032932;28;20430;-73
2023/08/04 02:14:19;;;;;;;4.97;3.65;;;25.80;99.90;;;;;;5020221;28;20383;-72
2023/08/04 02:16:45;;;;;;;5.80;3.28;;;25.70;99.90;;;;;;5031696;28;20033;-73
2023/08/04 02:19:11;;;;;;;6.50;3.45;;;25.60;99.90;;;;;;5031042;28;20032;-72
2023/08/04 02:22:04;;;;;;;5.82;3.65;;;25.50;99.90;;;;;;5041011;28;20025;-72
2023/08/04 02:24:30;;;;;;;4.68;3.30;;;25.60;99.90;;;;;;5033808;28;20494;-72
2023/08/04 02:26:55;;;;;;;7.00;3.97;;;25.60;99.90;;;;;;5012281;28;20030;-72
2023/08/04 02:29:21;;;;;;;3.72;3.40;;;25.70;99.90;;;;;;5028447;28;20077;-72
2023/08/04 02:31:47;;;;;;;8.40;3.92;;;25.60;99.90;;;;;;5033565;28;20026;-72
2023/08/04 02:34:12;;;;;;;4.22;3.67;;;25.60;99.90;;;;;;5030789;28;20025;-72
2023/08/04 02:36:38;;;;;;;4.93;3.10;;;25.60;99.90;;;;;;5019585;28;20403;-72
2023/08/04 02:39:04;;;;;;;6.60;3.83;;;25.60;99.90;;;;;;5021210;28;20037;-72
2023/08/04 02:41:29;;;;;;;5.10;3.65;;;25.50;99.90;;;;;;5031005;28;20037;-73
2023/08/04 02:43:55;;;;;;;5.65;4.05;;;25.50;99.90;;;;;;5031829;28;20108;-72
2023/08/04 02:46:23;;;;;;;4.78;3.47;;;25.60;99.90;;;;;;5025412;28;20460;-72
2023/08/04 02:48:48;;;;;;;7.13;3.25;;;25.60;99.90;;;;;;5031608;28;20115;-72
2023/08/04 02:51:14;;;;;;;4.40;3.38;;;25.60;99.90;;;;;;5030977;28;20101;-72
2023/08/04 02:53:43;;;;;;;7.82;3.50;;;25.70;99.90;;;;;;5031275;28;20033;-72
2023/08/04 02:56:43;;;;;;;5.15;3.50;;;25.70;99.90;;;;;;5033386;28;20026;-72
2023/08/04 02:59:09;;;;;;;5.78;3.45;;;25.70;99.90;;;;;;5028051;28;20053;-72
2023/08/04 03:01:34;;;;;;;5.22;3.83;;;25.70;99.90;;;;;;5031838;28;20030;-72
2023/08/04 03:04:00;;;;;;;4.15;2.85;;;25.70;99.90;;;;;;5031771;28;20033;-72
2023/08/04 03:06:26;;;;;;;4.15;3.28;;;25.70;99.90;;;;;;5029811;28;20029;-72
2023/08/04 03:08:55;;;;;;;6.00;3.58;;;25.60;99.90;;;;;;5043300;28;20020;-72
2023/08/04 03:11:21;;;;;;;5.68;3.30;;;25.70;99.90;;;;;;5031800;28;20037;-72
2023/08/04 03:13:47;;;;;;;5.18;3.17;;;25.70;99.90;;;;;;5041863;28;20071;-72
2023/08/04 03:16:12;;;;;;;4.88;2.97;;;25.70;99.90;;;;;;5031959;28;20026;-72
2023/08/04 03:18:38;;;;;;;3.63;3.33;;;25.70;99.90;;;;;;5037381;28;20040;-72
2023/08/04 03:21:03;;;;;;;5.50;3.30;;;25.60;99.90;;;;;;5041140;28;20025;-72
2023/08/04 03:23:30;;;;;;;3.72;3.13;;;25.60;99.90;;;;;;5038550;28;20384;-72
2023/08/04 03:25:56;;;;;;;4.97;2.88;;;25.60;99.90;;;;;;5025481;28;20025;-72
2023/08/04 03:28:21;;;;;;;4.75;2.88;;;25.60;99.90;;;;;;5037372;28;20029;-72
2023/08/04 03:30:47;;;;;;;4.57;3.00;;;25.60;99.90;;;;;;5038673;28;20030;-72
2023/08/04 03:33:13;;;;;;;6.03;2.67;;;25.60;99.90;;;;;;5034816;28;20036;-73
2023/08/04 03:35:38;;;;;;;5.53;3.20;;;25.60;99.90;;;;;;5039970;28;20391;-73
2023/08/04 03:38:06;;;;;;;4.07;2.65;;;25.60;99.90;;;;;;5043881;28;20036;-73
2023/08/04 03:40:31;;;;;;;4.07;2.60;;;25.60;99.90;;;;;;5042748;28;20124;-73
2023/08/04 03:42:57;;;;;;;5.13;2.72;;;25.60;99.90;;;;;;5047321;28;20100;-73
2023/08/04 03:45:23;;;;;;;4.05;2.70;;;25.50;99.90;;;;;;5033919;28;20086;-72
2023/08/04 03:47:49;;;;;;;7.00;2.95;;;25.60;99.90;;;;;;5046514;28;20040;-73
2023/08/04 03:50:15;;;;;;;5.45;2.95;;;;;;;;;;5041259;28;20086;-73
2023/08/04 03:52:40;;;;;;;7.03;3.20;;;25.50;99.90;;;;;;5039439;28;20052;-73
2023/08/04 03:55:07;;;;;;;4.85;3.05;;;25.50;99.90;;;;;;5039807;28;20470;-73
2023/08/04 03:57:32;;;;;;;4.57;2.50;;;25.50;99.90;;;;;;5045173;28;20022;-73
2023/08/04 03:59:58;;;;;;;5.85;2.95;;;25.40;99.90;;;;;;5034356;28;20060;-72
2023/08/04 04:02:24;;;;;;;5.45;2.80;;;25.30;99.90;;;;;;5036183;28;20475;-73
2023/08/04 04:04:50;;;;;;;3.85;3.03;;;25.30;99.90;;;;;;5033908;28;20031;-73
2023/08/04 04:07:15;;;;;;;5.55;2.83;;;25.30;99.90;;;;;;5033083;28;20438;-73
2023/08/04 04:09:41;;;;;;;3.70;2.70;;;25.30;99.90;;;;;;5033152;28;20100;-73
2023/08/04 04:12:07;;;;;;;5.47;2.72;;;25.30;99.90;;;;;;5034915;28;21681;-73
2023/08/04 04:14:33;;;;;;;3.22;2.92;;;25.20;99.90;;;;;;5033515;28;20030;-73
2023/08/04 04:16:58;;;;;;;7.75;2.95;;;25.20;99.90;;;;;;5034517;28;20030;-73
2023/08/04 04:19:24;;;;;;;5.40;2.83;;;25.20;99.90;;;;;;5032368;28;20139;-73
2023/08/04 04:21:51;;;;;;;4.13;2.85;;;25.20;99.90;;;;;;5037906;28;20017;-73
2023/08/04 04:24:16;;;;;;;5.63;3.03;;;25.20;99.90;;;;;;5034017;28;20487;-73
2023/08/04 04:26:42;;;;;;;4.05;2.80;;;25.10;99.90;;;;;;5031731;28;20025;-73
2023/08/04 04:29:08;;;;;;;6.85;3.00;;;25.10;99.90;;;;;;5032836;28;20486;-73
2023/08/04 04:31:33;;;;;;;4.03;2.25;;;25.10;99.90;;;;;;5031916;28;20459;-73
2023/08/04 04:33:59;;;;;;;3.95;2.50;;;25.10;99.90;;;;;;5034672;28;20025;-73
2023/08/04 04:36:25;;;;;;;6.25;2.80;;;25.20;99.90;;;;;;5033738;28;20041;-73
2023/08/04 04:38:50;;;;;;;6.70;3.28;;;25.20;99.90;;;;;;5035673;28;20042;-73
2023/08/04 04:41:16;;;;;;;4.43;2.50;;;25.10;99.90;;;;;;5033072;28;20041;-73
2023/08/04 04:43:42;;;;;;;6.03;2.58;;;25.20;99.90;;;;;;5033493;28;20029;-73
2023/08/04 04:46:07;;;;;;;5.82;2.72;;;25.20;99.90;;;;;;5031809;28;20040;-73
2023/08/04 04:48:33;;;;;;;8.10;2.42;;;25.10;99.90;;;;;;5035270;28;20387;-73
2023/08/04 04:50:59;;;;;;;3.90;2.28;;;25.10;99.90;;;;;;5033549;28;20028;-73
2023/08/04 04:53:24;;;;;;;4.88;2.35;;;25.20;99.90;;;;;;5029056;28;20130;-73
2023/08/04 04:55:50;;;;;;;5.20;2.55;;;25.30;99.90;;;;;;5031283;28;20060;-73
2023/08/04 04:58:16;;;;;;;6.38;2.67;;;25.30;99.90;;;;;;5034010;28;20052;-72
2023/08/04 05:00:44;;;;;;;6.32;2.58;;;25.30;99.90;;;;;;5044417;28;20116;-72
2023/08/04 05:03:10;;;;;;;8.07;3.03;;;25.20;99.90;;;;;;5031651;28;20022;-72
2023/08/04 05:05:37;;;;;;;3.13;2.38;;;25.20;99.90;;;;;;5036783;28;20471;-73
2023/08/04 05:08:03;;;;;;;6.10;2.80;;;25.30;99.90;;;;;;5040154;28;20127;-72
2023/08/04 05:10:29;;;;;;;6.05;2.58;;;25.30;99.90;;;;;;5050128;28;20040;-72
2023/08/04 05:12:54;;;;;;;7.43;2.50;;;25.20;99.90;;;;;;5042404;28;20407;-72
2023/08/04 05:15:26;;;;;;;5.80;2.58;;;25.20;99.90;;;;;;5035144;28;20855;-72
2023/08/04 05:17:51;;;;;;;6.18;2.53;;;25.20;99.90;;;;;;5038568;28;20095;-73
2023/08/04 05:20:17;;;;;;;5.97;3.38;;;25.20;99.90;;;;;;5044911;28;20037;-74
2023/08/04 05:22:43;;;;;;;4.25;2.33;;;25.20;99.90;;;;;;5036186;28;20010;-72
2023/08/04 05:25:09;;;;;;;5.10;2.60;;;25.20;99.90;;;;;;5031106;28;20032;-72
2023/08/04 05:27:35;;;;;;;5.57;2.55;;;25.30;99.90;;;;;;5033859;28;20390;-73
2023/08/04 05:30:01;;;;;;;5.68;2.80;;;25.20;99.90;;;;;;5023986;28;20036;-73
2023/08/04 05:32:29;;;;;;;6.13;2.60;;;25.10;99.90;;;;;;5030992;28;20036;-73
2023/08/04 05:34:54;;;;;;;6.00;2.67;;;25.20;99.90;;;;;;5027028;28;20026;-73
2023/08/04 05:37:20;;;;;;;3.40;2.35;;;25.20;99.90;;;;;;5032566;28;20040;-73
2023/08/04 05:39:46;;;;;;;6.68;2.40;;;25.20;99.90;;;;;;5031959;28;20033;-73
2023/08/04 05:42:11;;;;;;;5.60;2.63;;;25.20;99.90;;;;;;5031768;28;20029;-73
2023/08/04 05:44:44;;;;;;;5.53;1.92;;;25.10;99.90;;;;;;5033268;28;20092;-73
2023/08/04 05:47:10;;;;;;;6.65;2.95;;;25.00;99.90;;;;;;5034361;28;20053;-76
2023/08/04 05:49:35;;;;;;;5.97;3.08;;;25.10;99.90;;;;;;5031278;28;20466;-72
2023/08/04 05:52:01;;;;;;;7.05;2.90;;;25.20;99.90;;;;;;5032764;28;20029;-73
2023/08/04 05:54:27;;;;;;;4.70;2.88;;;25.20;99.90;;;;;;5030741;28;20033;-71
2023/08/04 05:56:52;;;;;;;7.45;2.83;;;25.30;99.90;;;;;;5026666;28;20455;-72
2023/08/04 05:59:18;;;;;;;8.40;3.20;;;25.30;99.90;;;;;;5028953;28;20481;-71
2023/08/04 06:01:44;;;;;;;8.25;2.72;;;25.20;99.90;;;;;;5030590;28;20029;-71
2023/08/04 06:04:10;;;;;;;6.15;2.60;;;25.30;99.90;;;;;;5030347;28;20399;-71
2023/08/04 06:06:35;;;;;;;6.40;2.97;;;25.30;99.90;;;;;;5020903;28;20017;-71
2023/08/04 06:09:02;;;;;;;6.00;3.08;;;25.30;99.90;;;;;;5021339;28;20136;-71
2023/08/04 06:11:27;;;;;;;5.57;2.70;;;25.40;99.90;;;;;;5025955;28;20025;-70
2023/08/04 06:13:57;;;;;;;6.85;3.15;;;25.40;99.90;;;;;;5032701;28;20443;-71
2023/08/04 06:16:22;;;;;;;8.32;3.03;;;25.50;99.90;;;;;;5023246;28;20108;-71
2023/08/04 06:18:48;;;;;;;8.00;3.10;;;25.40;99.90;;;;;;5025427;28;20128;-69
2023/08/04 06:21:14;;;;;;;4.45;2.67;;;25.40;99.90;;;;;;5025520;28;20029;-69
2023/08/04 06:23:45;;;;;;;7.40;2.97;;;25.50;99.90;;;;;;5045574;28;20455;-69
2023/08/04 06:26:12;;;;;;;4.97;3.00;;;25.50;99.90;;;;;;5045159;28;20135;-69
2023/08/04 06:28:39;;;;;;;5.45;2.80;;;25.40;99.90;;;;;;5031242;28;20029;-71
2023/08/04 06:31:05;;;;;;;6.68;3.13;;;25.50;99.90;;;;;;5046678;28;20023;-69
2023/08/04 06:33:30;;;;;;;14.65;3.75;;;25.50;99.90;;;;;;5045489;28;20160;-69
2023/08/04 06:35:56;;;;;;;7.57;3.55;;;25.50;99.90;;;;;;5034971;28;20104;-71
2023/08/04 06:38:22;;;;;;;8.57;3.28;;;25.40;99.90;;;;;;5051334;28;20036;-69
2023/08/04 06:40:49;;;;;;;6.03;3.17;;;25.50;99.90;;;;;;5034001;28;20033;-69
2023/08/04 06:43:14;;;;;;;6.15;3.10;;;25.50;99.90;;;;;;5031144;28;20036;-65
2023/08/04 06:45:43;;;;;;;8.52;3.35;;;25.50;99.90;;;;;;5026260;28;20022;-66
2023/08/04 06:48:09;;;;;;;10.90;3.33;;;25.40;99.90;;;;;;5038147;28;20026;-65
2023/08/04 06:50:34;;;;;;;9.65;2.97;;;25.30;99.90;;;;;;5020986;28;20037;-66
2023/08/04 06:53:00;;;;;;;12.95;3.78;;;25.30;99.90;;;;;;5015917;28;20049;-65
2023/08/04 06:55:26;;;;;;;6.82;3.28;;;25.40;99.90;;;;;;5024208;28;20064;-65
2023/08/04 06:57:52;;;;;;;5.57;2.72;;;25.40;99.90;;;;;;5020152;28;20044;-65
2023/08/04 07:00:17;;;;;;;11.52;3.70;;;25.30;99.90;;;;;;5029639;28;20040;-64
2023/08/04 07:02:47;;;;;;;9.07;4.60;;;25.20;99.90;;;;;;5028417;28;20024;-65
2023/08/04 07:05:12;;;;;;;11.98;8.15;;;25.20;99.90;;;;;;5020296;28;20029;-64
2023/08/04 07:07:38;;;;;;;9.30;4.75;;;25.30;99.90;;;;;;5018653;28;20432;-65
2023/08/04 07:10:04;;;;;;;10.43;5.05;;;25.20;99.90;;;;;;5030847;28;20022;-72
2023/08/04 07:12:33;;;;;;;10.93;6.13;;;25.40;99.90;;;;;;5028814;28;20029;-67
2023/08/04 07:14:59;;;;;;;13.25;7.95;;;25.40;99.90;;;;;;5015569;28;20021;-65
2023/08/04 07:17:24;;;;;;;31.15;22.77;;;25.40;99.90;;;;;;5020083;28;20041;-68
2023/08/04 07:19:50;;;;;;;20.67;12.32;;;25.40;99.90;;;;;;5022487;28;20468;-68
2023/08/04 07:22:16;;;;;;;12.65;7.70;;;25.40;99.90;;;;;;5023379;28;20109;-64
2023/08/04 07:24:42;;;;;;;10.57;7.15;;;25.40;99.90;;;;;;5023432;28;20029;-65
2023/08/04 07:27:08;;;;;;;21.08;16.13;;;25.50;99.90;;;;;;5033545;28;20113;-64
2023/08/04 07:29:34;;;;;;;11.88;8.02;;;25.50;99.90;;;;;;5027348;28;20457;-64
2023/08/04 07:32:00;;;;;;;13.52;8.05;;;25.30;99.90;;;;;;5005305;28;20479;-65
2023/08/04 07:34:26;;;;;;;27.30;14.70;;;25.40;99.90;;;;;;5020993;28;20394;-62
2023/08/04 07:36:55;;;;;;;30.65;22.20;;;25.20;99.90;;;;;;5026211;28;20029;-62
2023/08/04 07:39:20;;;;;;;22.48;12.75;;;25.30;99.90;;;;;;5034385;28;20108;-62
2023/08/04 07:41:46;;;;;;;13.05;8.65;;;25.40;99.90;;;;;;5032160;28;20030;-63
2023/08/04 07:44:12;;;;;;;18.33;13.05;;;25.30;99.90;;;;;;5032514;28;20029;-64
2023/08/04 07:46:37;;;;;;;15.52;8.63;;;25.30;99.90;;;;;;5035366;28;20046;-61
2023/08/04 07:49:03;;;;;;;11.82;5.80;;;25.40;99.90;;;;;;5032954;28;20033;-61
2023/08/04 07:51:29;;;;;;;19.45;13.45;;;25.50;99.90;;;;;;5030924;28;20032;-61
2023/08/04 07:53:54;;;;;;;16.10;10.18;;;25.50;99.90;;;;;;5034381;28;20038;-61
2023/08/04 07:56:20;;;;;;;8.65;5.15;;;25.60;99.90;;;;;;5032325;28;20022;-67
2023/08/04 07:58:47;;;;;;;15.50;6.40;;;25.80;99.90;;;;;;5032329;28;20119;-61
2023/08/04 08:01:13;;;;;;;12.52;8.32;;;25.90;99.90;;;;;;5028900;28;20479;-60
2023/08/04 08:03:39;;;;;;;12.82;7.30;;;25.90;99.90;;;;;;5033175;28;20029;-59
2023/08/04 08:06:05;;;;;;;18.95;14.35;;;26.00;99.90;;;;;;5022897;28;20022;-61
2023/08/04 08:08:31;;;;;;;13.90;10.18;;;25.90;99.90;;;;;;5023605;28;20410;-60
2023/08/04 08:10:57;;;;;;;24.27;19.45;;;25.90;99.90;;;;;;5027792;28;20030;-63
2023/08/04 08:13:23;;;;;;;11.68;7.82;;;25.90;99.90;;;;;;5030407;28;20104;-67
2023/08/04 08:15:48;;;;;;;10.20;5.13;;;26.00;99.90;;;;;;5027353;28;20022;-67
2023/08/04 08:18:14;;;;;;;13.40;6.38;;;26.00;99.90;;;;;;5030519;28;20034;-72
2023/08/04 08:20:44;;;;;;;18.23;14.00;;;26.00;99.90;;;;;;5036424;28;20037;-66
2023/08/04 08:23:10;;;;;;;13.50;5.68;;;26.10;99.90;;;;;;5034515;28;20139;-69
2023/08/04 08:25:37;;;;;;;17.83;11.13;;;26.10;99.90;;;;;;5034884;28;20029;-80
2023/08/04 08:28:03;;;;;;;13.55;8.93;;;26.30;99.90;;;;;;5030396;28;20021;-76
2023/08/04 08:30:29;;;;;;;11.75;4.88;;;26.50;99.90;;;;;;5026095;28;20079;-60
2023/08/04 08:32:55;;;;;;;19.80;14.77;;;26.50;99.90;;;;;;5037223;28;20022;-58
2023/08/04 08:35:20;;;;;;;18.23;11.43;;;26.50;99.90;;;;;;5035656;28;20099;-58
2023/08/04 08:37:46;;;;;;;11.90;8.48;;;26.50;99.90;;;;;;5032744;28;20039;-57
2023/08/04 08:40:12;;;;;;;16.42;10.35;;;26.50;99.90;;;;;;5024242;28;20038;-66
2023/08/04 08:42:38;;;;;;;16.00;8.32;;;26.60;99.90;;;;;;5036839;28;20071;-68
2023/08/04 08:45:07;;;;;;;11.35;6.20;;;26.70;99.90;;;;;;5029510;28;20563;-72
2023/08/04 08:47:35;;;;;;;15.00;11.13;;;26.80;99.90;;;;;;5034907;28;20017;-73
2023/08/04 08:50:02;;;;;;;18.65;10.85;;;27.00;99.90;;;;;;5034641;28;20029;-74
2023/08/04 08:52:35;;;;;;;41.42;28.90;;;27.10;99.90;;;;;;5033565;28;20379;-74
2023/08/04 08:55:03;;;;;;;16.42;8.98;;;;;;;;;;5030815;28;20064;-79
2023/08/04 08:57:29;;;;;;;15.88;7.10;;;;;;;;;;5032712;28;20033;-63
2023/08/04 08:59:58;;;;;;;10.85;5.60;;;;;;;;;;5032023;28;20051;-63
2023/08/04 09:02:25;;;;;;;27.67;19.25;;;;;;;;;;5033873;28;20075;-65
2023/08/04 09:04:51;;;;;;;21.05;14.52;;;;;;;;;;5020445;28;20032;-63
2023/08/04 09:07:17;;;;;;;20.48;10.75;;;;;;;;;;5024226;28;20556;-66
2023/08/04 09:09:44;;;;;;;25.58;16.70;;;;;;;;;;5031119;28;20029;-58
2023/08/04 09:12:10;;;;;;;23.52;15.02;;;27.20;99.90;;;;;;5030583;28;20032;-60
2023/08/04 09:14:51;;;;;;;14.65;9.70;;;27.80;99.90;;;;;;5030695;28;20029;-75
2023/08/04 09:17:29;;;;;;;16.67;11.77;;;27.70;99.90;;;;;;5027638;28;20035;-66
2023/08/04 09:19:55;;;;;;;13.55;6.80;;;27.70;99.90;;;;;;5018685;28;20042;-68
2023/08/04 09:22:21;;;;;;;20.08;11.75;;;27.80;99.90;;;;;;5030207;28;20041;-73
2023/08/04 09:24:59;;;;;;;12.70;9.05;;;27.70;99.90;;;;;;5033279;28;20032;-67
2023/08/04 09:27:37;;;;;;;10.90;7.80;;;27.80;99.90;;;;;;5031544;28;20041;-62
2023/08/04 09:30:05;;;;;;;24.05;19.05;;;27.90;99.90;;;;;;5028187;28;20026;-78
2023/08/04 09:32:33;;;;;;;17.92;14.05;;;27.80;99.90;;;;;;5035627;28;20495;-62
2023/08/04 09:35:05;;;;;;;7.97;4.38;;;27.70;99.90;;;;;;5039145;28;20029;-65
2023/08/04 09:37:32;;;;;;;15.02;9.43;;;27.70;99.90;;;;;;5032290;28;20503;-58
2023/08/04 09:39:59;;;;;;;10.77;6.57;;;27.60;99.90;;;;;;5032609;28;20396;-58
2023/08/04 09:42:25;;;;;;;15.88;8.82;;;27.80;99.90;;;;;;5031971;28;20040;-66
2023/08/04 09:44:52;;;;;;;46.10;35.50;;;27.70;99.90;;;;;;5031119;28;20026;-66
2023/08/04 09:47:23;;;;;;;22.02;15.57;;;27.80;99.90;;;;;;5035099;28;20024;-64
2023/08/04 09:49:52;;;;;;;26.17;13.50;;;;;;;;;;5029349;28;20412;-78
2023/08/04 09:52:19;;;;;;;31.25;21.33;;;;;;;;;;5031689;28;20036;-74
2023/08/04 09:54:45;;;;;;;21.63;15.30;;;;;;;;;;5031034;28;20022;-69
2023/08/04 09:57:13;;;;;;;21.30;13.93;;;;;;;;;;5035013;28;20025;-64
2023/08/04 09:59:40;;;;;;;31.15;23.92;;;;;;;;;;5026571;28;20054;-65
2023/08/04 10:02:07;;;;;;;19.92;13.75;;;;;;;;;;5025892;28;20030;-67
2023/08/04 10:04:34;;;;;;;20.02;13.38;;;;;;;;;;5029228;28;20083;-71
2023/08/04 10:07:00;;;;;;;25.00;20.95;;;;;;;;;;5036343;28;20032;-60
2023/08/04 10:09:27;;;;;;;33.90;28.95;;;;;;;;;;5033937;28;20052;-62
2023/08/04 10:11:53;;;;;;;26.83;15.65;;;;;;;;;;5037262;28;20057;-61
2023/08/04 10:14:19;;;;;;;18.30;12.80;;;;;;;;;;5030306;28;20032;-62
2023/08/04 10:16:46;;;;;;;16.55;11.70;;;;;;;;;;5029187;28;20540;-62
2023/08/04 10:19:13;;;;;;;46.20;37.03;;;;;;;;;;5027940;28;20144;-66
2023/08/04 10:21:40;;;;;;;12.70;10.50;;;;;;;;;;5027507;28;20075;-63
2023/08/04 10:24:07;;;;;;;28.17;22.35;;;;;;;;;;5028037;28;20075;-63
2023/08/04 10:26:35;;;;;;;35.15;27.85;;;;;;;;;;5034583;28;20038;-69
2023/08/04 10:29:04;;;;;;;16.77;13.35;;;;;;;;;;5024731;28;20021;-68
2023/08/04 10:31:51;;;;;;;51.45;39.40;;;;;;;;;;5034340;28;20030;-61
2023/08/04 10:34:27;;;;;;;20.25;14.57;;;;;;;;;;5028914;28;20052;-64
2023/08/04 10:37:12;;;;;;;16.42;12.05;;;;;;;;;;5039511;28;20358;-62
2023/08/04 10:39:38;;;;;;;18.98;14.65;;;;;;;;;;5031208;28;20045;-66
2023/08/04 10:42:06;;;;;;;23.80;19.35;;;;;;;;;;5019396;28;20034;-62
2023/08/04 10:44:47;;;;;;;16.77;9.50;;;;;;;;;;5020265;28;20037;-64
2023/08/04 10:47:13;;;;;;;14.18;9.45;;;;;;;;;;5029813;28;20075;-66
2023/08/04 10:49:40;;;;;;;29.45;22.83;;;;;;;;;;5037267;28;20050;-68
2023/08/04 10:52:06;;;;;;;27.25;18.45;;;;;;;;;;5050815;28;20029;-69
2023/08/04 10:54:32;;;;;;;14.02;7.32;;;;;;;;;;5047102;28;20029;-68
2023/08/04 10:56:58;;;;;;;29.52;22.63;;;;;;;;;;5046770;28;20060;-69
2023/08/04 10:59:24;;;;;;;13.77;9.18;;;;;;;;;;5031191;28;20519;-69
2023/08/04 11:01:51;;;;;;;21.30;12.20;;;;;;;;;;5030578;28;20057;-69
2023/08/04 11:04:18;;;;;;;14.75;8.23;;;;;;;;;;5032030;28;20044;-69
2023/08/04 11:06:47;;;;;;;20.70;7.85;;;;;;;;;;5032883;28;20025;-68
2023/08/04 11:09:13;;;;;;;21.60;14.40;;;;;;;;;;5032218;28;20375;-68
2023/08/04 11:11:40;;;;;;;26.33;17.35;;;;;;;;;;5030511;28;20033;-69
2023/08/04 11:14:07;;;;;;;22.67;15.32;;;;;;;;;;5033026;28;20026;-68
2023/08/04 11:16:35;;;;;;;15.20;6.65;;;;;;;;;;5028653;28;20034;-69
2023/08/04 11:19:03;;;;;;;17.15;7.50;;;;;;;;;;5028729;28;20090;-68
2023/08/04 11:21:30;;;;;;;18.10;9.38;;;;;;;;;;5032583;28;20025;-68
2023/08/04 11:23:56;;;;;;;20.38;11.00;;;;;;;;;;5032888;28;20071;-68
2023/08/04 11:26:23;;;;;;;14.48;8.23;;;;;;;;;;5031367;28;20117;-68
2023/08/04 11:28:49;;;;;;;20.80;10.57;;;;;;;;;;5025621;28;20033;-68
2023/08/04 11:31:20;;;;;;;29.48;18.10;;;;;;;;;;5023577;28;20067;-68
2023/08/04 11:33:46;;;;;;;17.50;7.28;;;;;;;;;;5032720;28;20033;-68
2023/08/04 11:36:12;;;;;;;16.08;8.60;;;;;;;;;;5030910;28;20029;-68
2023/08/04 11:38:39;;;;;;;18.85;12.77;;;;;;;;;;5032831;28;20032;-68
2023/08/04 11:41:08;;;;;;;18.33;12.85;;;;;;;;;;5031779;28;20083;-69
2023/08/04 11:43:34;;;;;;;20.13;12.55;;;;;;;;;;5030712;28;20025;-68
2023/08/04 11:46:03;;;;;;;11.65;6.47;;;;;;;;;;5031124;28;20026;-68
2023/08/04 11:48:30;;;;;;;16.17;8.20;;;;;;;;;;5032494;28;20025;-68
2023/08/04 11:50:57;;;;;;;35.35;25.15;;;;;;;;;;5030517;28;20044;-68
2023/08/04 11:53:23;;;;;;;18.85;11.15;;;;;;;;;;5032707;28;20480;-68
2023/08/04 11:55:56;;;;;;;33.38;25.35;;;;;;;;;;5046612;28;20029;-69
2023/08/04 11:58:34;;;;;;;21.08;9.02;;;;;;;;;;5037487;28;20441;-69
2023/08/04 12:01:00;;;;;;;15.45;7.28;;;;;;;;;;5036325;28;20032;-68
2023/08/04 12:03:39;;;;;;;23.38;8.65;;;;;;;;;;5036189;28;20032;-68
2023/08/04 12:06:12;;;;;;;24.63;12.40;;;;;;;;;;5038131;28;20534;-68
2023/08/04 12:08:38;;;;;;;24.42;15.80;;;;;;;;;;5042119;28;20017;-69
2023/08/04 12:11:04;;;;;;;25.48;17.60;;;;;;;;;;5039982;28;20083;-69
2023/08/04 12:13:35;;;;;;;26.00;12.10;;;;;;;;;;5035778;28;20034;-68
2023/08/04 12:16:01;;;;;;;24.77;15.52;;;;;;;;;;5038046;28;20109;-68
2023/08/04 12:18:28;;;;;;;44.17;33.35;;;;;;;;;;5037149;28;20030;-68
2023/08/04 12:20:56;;;;;;;16.50;12.00;;;;;;;;;;5043339;28;20120;-68
2023/08/04 12:23:28;;;;;;;14.85;11.07;;;;;;;;;;5035866;28;20467;-69
2023/08/04 12:25:54;;;;;;;45.78;35.47;;;;;;;;;;5037684;28;20034;-69
2023/08/04 12:28:20;;;;;;;21.52;13.55;;;;;;;;;;5036564;28;20059;-69
2023/08/04 12:30:48;;;;;;;20.33;13.13;;;28.10;99.90;;;;;;5039332;28;20027;-68
2023/08/04 12:33:13;;;;;;;24.50;16.27;;;29.10;99.90;;;;;;5036891;28;20033;-74
2023/08/04 12:35:39;;;;;;;21.90;11.73;;;28.90;99.90;;;;;;5043441;28;20083;-70
2023/08/04 12:38:05;;;;;;;27.50;21.85;;;28.80;99.90;;;;;;5035229;28;20025;-69
2023/08/04 12:40:32;;;;;;;29.45;22.75;;;28.90;99.90;;;;;;5033554;28;20048;-69
2023/08/04 12:42:57;;;;;;;18.67;13.05;;;28.80;99.90;;;;;;5034190;28;20021;-69
2023/08/04 12:45:23;;;;;;;14.82;11.30;;;;;;;;;;5034351;28;20042;-70
2023/08/04 12:47:49;;;;;;;14.07;8.68;;;;;;;;;;5034663;28;20024;-69
2023/08/04 12:50:16;;;;;;;19.30;11.93;;;;;;;;;;5038658;28;20037;-69
2023/08/04 12:52:42;;;;;;;17.00;8.93;;;;;;;;;;5033837;28;20025;-69
2023/08/04 12:55:08;;;;;;;15.23;10.82;;;;;;;;;;5034286;28;20033;-69
2023/08/04 12:57:34;;;;;;;17.42;8.25;;;;;;;;;;5037154;28;20013;-69
2023/08/04 13:00:00;;;;;;;15.63;8.70;;;;;;;;;;5041921;28;20056;-69
2023/08/04 13:02:27;;;;;;;15.52;7.63;;;;;;;;;;5030976;28;20383;-69
2023/08/04 13:04:53;;;;;;;15.27;9.48;;;;;;;;;;5022015;28;20424;-67
2023/08/04 13:07:19;;;;;;;14.38;7.97;;;;;;;;;;5033863;28;20052;-67